This is the latest recevied weather packets stored in our database for station/object HB9KBJ-8. If no packets are shown the sender has not sent any weather packets the latest 10 day(s).
| Time | Temp. | Humidity | Pressure | Rain* | Wind** | Luminosity | Snow |
|---|---|---|---|---|---|---|---|
| 1778164946 | 16.11° C | 60% | 1014 hPa | 0 mm | - | 643 W/m² | - |
| 1778164643 | 16.67° C | 60% | 1014 hPa | 0 mm | - | 670 W/m² | - |
| 1778164342 | 17.22° C | 57% | 1014 hPa | 0 mm | - | 652 W/m² | - |
| 1778164042 | 17.22° C | 59% | 1014 hPa | 0 mm | - | 661 W/m² | - |
| 1778163755 | 16.67° C | 58% | 1014 hPa | 0 mm | - | 649 W/m² | - |
| 1778163450 | 16.67° C | 58% | 1014 hPa | 0 mm | - | 654 W/m² | - |
| 1778163133 | 16.67° C | 59% | 1014 hPa | 0 mm | - | 664 W/m² | - |
| 1778162837 | 16.11° C | 61% | 1014.1 hPa | 0 mm | - | 680 W/m² | - |
| 1778162547 | 16.67° C | 60% | 1014.1 hPa | 0 mm | - | 694 W/m² | - |
| 1778162236 | 16.11° C | 63% | 1014.1 hPa | 0 mm | - | 705 W/m² | - |
| 1778161951 | 16.11° C | 63% | 1014.2 hPa | 0 mm | - | 729 W/m² | - |
| 1778161648 | 16.11° C | 62% | 1014.3 hPa | 0 mm | - | 698 W/m² | - |
| 1778161347 | 16.11° C | 64% | 1014.3 hPa | 0 mm | - | 705 W/m² | - |
| 1778161051 | 15.56° C | 65% | 1014.3 hPa | 0 mm | - | 717 W/m² | - |
| 1778160734 | 15.56° C | 65% | 1014.4 hPa | 0 mm | - | 721 W/m² | - |
| 1778160439 | 16.11° C | 67% | 1014.4 hPa | 0 mm | - | 737 W/m² | - |
| 1778160144 | 14.44° C | 68% | 1014.5 hPa | 0 mm | - | 752 W/m² | - |
| 1778159840 | 14.44° C | 74% | 1014.5 hPa | 0 mm | - | 765 W/m² | - |
| 1778159537 | 14.44° C | 80% | 1014.6 hPa | 0 mm | - | 800 W/m² | - |
| 1778159237 | 13.33° C | 79% | 1014.8 hPa | 0 mm | - | 893 W/m² | - |
| 1778158936 | 13.33° C | 74% | 1014.6 hPa | 0 mm | - | 211 W/m² | - |
| 1778158636 | 13.89° C | 72% | 1014.7 hPa | 0 mm | - | 128 W/m² | - |
| 1778158333 | 14.44° C | 68% | 1014.6 hPa | 0 mm | - | 149 W/m² | - |
| 1778158036 | 15.56° C | 66% | 1014.5 hPa | 0 mm | - | 190 W/m² | - |
| 1778157736 | 15.56° C | 65% | 1014.6 hPa | 0 mm | - | 227 W/m² | - |
* Rain latest hour (hover to see other rain measurements)
** Current wind speed in m/s (hover to see current wind gust speed)